createdAt,value
2022-08-26T00:02:01.716Z,67.51
2022-08-26T00:04:39.851Z,67.31
2022-08-26T00:07:33.826Z,67.24
2022-08-26T00:10:36.615Z,67.34
2022-08-26T00:13:06.784Z,67.41
2022-08-26T00:15:51.358Z,67.35
2022-08-26T00:18:27.459Z,67.29
2022-08-26T00:21:08.471Z,67.20
2022-08-26T00:23:54.729Z,67.11
2022-08-26T00:26:41.768Z,66.99
2022-08-26T00:29:17.392Z,66.86
2022-08-26T00:31:55.120Z,66.83
2022-08-26T00:34:36.882Z,66.78
2022-08-26T00:37:15.631Z,66.72
2022-08-26T00:39:50.264Z,66.78
2022-08-26T00:42:48.677Z,66.81
2022-08-26T00:45:27.491Z,66.97
2022-08-26T00:48:17.113Z,66.81
2022-08-26T00:51:04.128Z,66.81
2022-08-26T00:53:44.310Z,66.77
2022-08-26T00:56:59.887Z,66.81
2022-08-26T00:59:35.364Z,66.83
2022-08-26T01:02:40.914Z,66.85
2022-08-26T01:05:44.731Z,66.89
2022-08-26T01:08:25.014Z,66.93
2022-08-26T01:11:05.556Z,66.84
2022-08-26T01:13:41.563Z,66.78
2022-08-26T01:16:38.175Z,67.00
2022-08-26T01:19:41.024Z,66.82
2022-08-26T01:22:55.901Z,66.78
2022-08-26T01:25:40.356Z,66.79
2022-08-26T01:28:27.217Z,66.69
2022-08-26T01:32:02.450Z,66.74
2022-08-26T01:35:02.067Z,66.75
2022-08-26T01:37:36.877Z,66.72
2022-08-26T01:40:17.100Z,66.66
2022-08-26T01:42:58.587Z,66.68
2022-08-26T01:46:36.139Z,66.81
2022-08-26T01:49:19.473Z,66.92
2022-08-26T01:52:39.938Z,66.81
2022-08-26T01:55:15.450Z,66.86
2022-08-26T01:58:48.763Z,66.94
2022-08-26T02:01:34.023Z,67.04
2022-08-26T02:04:33.440Z,66.97
2022-08-26T02:07:46.108Z,67.15
2022-08-26T02:11:00.470Z,67.15
2022-08-26T02:14:05.711Z,67.12
2022-08-26T02:16:46.953Z,67.15
2022-08-26T02:19:46.604Z,67.20
2022-08-26T02:22:53.174Z,67.32
2022-08-26T02:26:19.239Z,67.36
2022-08-26T02:29:20.584Z,67.44
2022-08-26T02:32:07.198Z,67.30
2022-08-26T02:35:02.778Z,67.19
2022-08-26T02:37:35.976Z,67.27
2022-08-26T02:40:42.343Z,67.32
2022-08-26T02:43:31.273Z,67.30
2022-08-26T02:46:29.756Z,67.38
2022-08-26T02:49:11.504Z,67.46
2022-08-26T02:51:55.209Z,67.48
2022-08-26T02:54:41.721Z,67.55
2022-08-26T02:57:13.917Z,67.66
2022-08-26T02:59:45.961Z,67.71
2022-08-26T03:02:34.364Z,67.81
2022-08-26T03:05:30.124Z,67.76
2022-08-26T03:08:07.383Z,67.82
2022-08-26T03:11:13.165Z,67.81
2022-08-26T03:13:55.173Z,67.84
2022-08-26T03:17:08.791Z,67.85
2022-08-26T03:19:44.235Z,67.92
2022-08-26T03:22:30.449Z,67.89
2022-08-26T03:25:07.407Z,67.99
2022-08-26T03:27:48.560Z,68.03
2022-08-26T03:31:01.452Z,68.08
2022-08-26T03:33:36.049Z,68.31
2022-08-26T03:36:28.901Z,68.35
2022-08-26T03:39:08.644Z,68.42
2022-08-26T03:41:46.708Z,68.37
2022-08-26T03:44:27.828Z,68.35
2022-08-26T03:47:00.097Z,68.35
2022-08-26T03:49:39.257Z,68.29
2022-08-26T03:52:24.469Z,68.36
2022-08-26T03:55:25.138Z,68.40
2022-08-26T03:58:07.167Z,68.43
2022-08-26T04:00:55.926Z,68.28
2022-08-26T04:03:56.492Z,68.22
2022-08-26T04:06:50.185Z,68.34
2022-08-26T04:09:36.087Z,68.54
2022-08-26T04:12:07.639Z,68.96
2022-08-26T04:14:53.293Z,68.89
2022-08-26T04:17:33.097Z,68.95
2022-08-26T04:20:36.470Z,68.94
2022-08-26T04:23:11.716Z,69.06
2022-08-26T04:25:48.957Z,68.87
2022-08-26T04:28:28.671Z,68.72
2022-08-26T04:31:04.182Z,68.72
2022-08-26T04:33:53.531Z,68.78
2022-08-26T04:36:39.001Z,68.71
2022-08-26T04:39:19.709Z,68.68
2022-08-26T04:41:55.280Z,68.67
2022-08-26T04:44:27.667Z,68.70
2022-08-26T04:47:05.729Z,68.61
2022-08-26T04:49:39.124Z,68.53
2022-08-26T04:52:12.929Z,68.51
2022-08-26T04:54:52.958Z,68.49
2022-08-26T04:57:33.884Z,68.37
2022-08-26T05:00:28.308Z,68.29
2022-08-26T05:03:02.131Z,68.30
2022-08-26T05:05:38.599Z,68.25
2022-08-26T05:08:11.605Z,68.15
2022-08-26T05:10:57.195Z,68.12
2022-08-26T05:13:31.062Z,68.16
2022-08-26T05:16:32.472Z,68.01
2022-08-26T05:19:03.585Z,68.04
2022-08-26T05:21:56.353Z,67.97
2022-08-26T05:24:47.728Z,67.93
2022-08-26T05:27:23.025Z,67.87
2022-08-26T05:30:02.050Z,67.73
2022-08-26T05:32:42.165Z,67.73
2022-08-26T05:35:14.014Z,67.62
2022-08-26T05:37:58.113Z,67.64
2022-08-26T05:41:21.455Z,67.78
2022-08-26T05:44:13.972Z,67.75
2022-08-26T05:46:53.551Z,67.60
2022-08-26T05:49:26.397Z,67.50
2022-08-26T05:52:08.938Z,67.46
2022-08-26T05:54:52.599Z,67.34
2022-08-26T05:57:44.303Z,67.25
2022-08-26T06:00:24.553Z,67.33
2022-08-26T06:03:28.876Z,66.93
2022-08-26T06:06:28.825Z,66.40
2022-08-26T06:09:10.894Z,66.24
2022-08-26T06:11:43.588Z,66.12
2022-08-26T06:14:26.799Z,66.04
2022-08-26T06:17:09.786Z,66.18
2022-08-26T06:19:54.174Z,66.28
2022-08-26T06:22:44.324Z,66.44
2022-08-26T06:25:42.263Z,66.50
2022-08-26T06:28:38.291Z,66.47
2022-08-26T06:31:26.957Z,66.32
2022-08-26T06:34:07.371Z,66.43
2022-08-26T06:36:47.737Z,66.21
2022-08-26T06:39:52.096Z,66.20
2022-08-26T06:42:33.914Z,66.12
2022-08-26T06:45:20.179Z,65.98
2022-08-26T06:47:52.915Z,65.90
2022-08-26T06:50:27.685Z,65.85
2022-08-26T06:53:09.855Z,65.53
2022-08-26T06:56:01.380Z,65.14
2022-08-26T06:58:44.799Z,64.78
2022-08-26T07:01:35.311Z,64.36
2022-08-26T07:04:28.220Z,64.04
2022-08-26T07:07:03.535Z,63.56
2022-08-26T07:09:44.688Z,63.25
2022-08-26T07:12:13.575Z,62.93
2022-08-26T07:15:27.179Z,62.72
2022-08-26T07:18:09.358Z,62.78
2022-08-26T07:20:42.373Z,62.56
2022-08-26T07:23:15.222Z,62.25
2022-08-26T07:25:52.444Z,61.95
2022-08-26T07:28:27.017Z,61.53
2022-08-26T07:31:09.670Z,61.11
2022-08-26T07:33:42.722Z,60.90
2022-08-26T07:36:37.542Z,60.84
2022-08-26T07:39:17.141Z,60.72
2022-08-26T07:42:01.047Z,60.42
2022-08-26T07:44:42.121Z,60.38
2022-08-26T07:47:25.052Z,60.38
2022-08-26T07:49:57.858Z,60.34
2022-08-26T07:52:31.279Z,59.89
2022-08-26T07:55:02.703Z,59.66
2022-08-26T07:57:34.977Z,59.53
2022-08-26T08:00:21.991Z,59.70
2022-08-26T08:02:55.695Z,58.59
2022-08-26T08:05:38.234Z,58.24
2022-08-26T08:08:27.951Z,58.77
2022-08-26T08:10:58.546Z,59.88
2022-08-26T08:13:31.776Z,62.07
2022-08-26T08:16:07.019Z,62.33
2022-08-26T08:18:46.865Z,61.06
2022-08-26T08:21:22.156Z,59.97
2022-08-26T08:23:56.325Z,58.82
2022-08-26T08:26:28.224Z,58.29
2022-08-26T08:29:08.970Z,59.22
2022-08-26T08:31:56.686Z,60.10
2022-08-26T08:34:36.852Z,59.92
2022-08-26T08:37:08.749Z,62.31
2022-08-26T08:39:42.509Z,62.14
2022-08-26T08:42:32.608Z,61.47
2022-08-26T08:45:07.947Z,60.21
2022-08-26T08:47:50.680Z,58.37
2022-08-26T08:50:34.312Z,58.58
2022-08-26T08:53:45.630Z,59.96
2022-08-26T08:56:37.829Z,60.88
2022-08-26T08:59:20.427Z,63.02
2022-08-26T09:02:10.252Z,63.00
2022-08-26T09:05:19.159Z,61.83
2022-08-26T09:08:00.951Z,60.07
2022-08-26T09:10:32.761Z,58.20
2022-08-26T09:13:13.800Z,58.35
2022-08-26T09:15:57.831Z,58.92
2022-08-26T09:18:36.725Z,59.36
2022-08-26T09:21:36.170Z,60.34
2022-08-26T09:24:18.087Z,60.39
2022-08-26T09:26:48.491Z,60.96
2022-08-26T09:29:50.481Z,62.10
2022-08-26T09:32:27.882Z,61.55
2022-08-26T09:35:06.308Z,60.28
2022-08-26T09:38:24.420Z,58.35
2022-08-26T09:41:22.809Z,57.56
2022-08-26T09:44:27.165Z,58.20
2022-08-26T09:47:05.009Z,58.32
2022-08-26T09:49:39.145Z,58.65
2022-08-26T09:52:23.782Z,58.60
2022-08-26T09:55:21.856Z,57.87
2022-08-26T09:57:55.762Z,57.08
2022-08-26T10:00:39.195Z,56.89
2022-08-26T10:03:12.896Z,56.83
2022-08-26T10:05:57.762Z,57.05
2022-08-26T10:08:32.492Z,57.29
2022-08-26T10:11:06.044Z,57.93
2022-08-26T10:13:50.084Z,58.73
2022-08-26T10:16:33.549Z,58.93
2022-08-26T10:19:18.843Z,57.70
2022-08-26T10:22:00.645Z,57.38
2022-08-26T10:24:40.889Z,57.56
2022-08-26T10:27:25.861Z,57.55
2022-08-26T10:30:04.279Z,57.60
2022-08-26T10:33:07.986Z,57.61
2022-08-26T10:35:52.236Z,56.76
2022-08-26T10:38:34.417Z,56.32
2022-08-26T10:41:22.129Z,55.73
2022-08-26T10:44:00.474Z,55.24
2022-08-26T10:46:44.526Z,54.44
2022-08-26T10:49:16.127Z,53.87
2022-08-26T10:51:55.107Z,53.22
2022-08-26T10:54:44.892Z,53.52
2022-08-26T10:57:40.811Z,52.48
2022-08-26T11:00:38.224Z,51.79
2022-08-26T11:03:24.881Z,51.06
2022-08-26T11:06:18.473Z,49.83
2022-08-26T11:08:57.982Z,49.15
2022-08-26T11:11:42.546Z,48.11
2022-08-26T11:14:42.021Z,46.55
2022-08-26T11:17:45.250Z,44.92
2022-08-26T11:20:26.637Z,43.97
2022-08-26T11:23:16.412Z,43.01
2022-08-26T11:26:12.124Z,42.88
2022-08-26T11:28:55.694Z,41.90
2022-08-26T11:31:27.800Z,41.68
2022-08-26T11:34:08.875Z,41.31
2022-08-26T11:37:05.857Z,40.92
2022-08-26T11:39:54.803Z,39.67
2022-08-26T11:42:35.693Z,38.52
2022-08-26T11:45:27.064Z,38.08
2022-08-26T11:47:59.374Z,38.24
2022-08-26T11:50:31.559Z,37.94
2022-08-26T11:53:07.786Z,37.47
2022-08-26T11:55:43.593Z,37.27
2022-08-26T11:58:13.858Z,36.68
2022-08-26T12:00:54.925Z,36.97
2022-08-26T12:03:36.340Z,36.46
2022-08-26T12:06:11.815Z,35.61
2022-08-26T12:08:45.322Z,35.03
2022-08-26T12:11:25.137Z,34.70
2022-08-26T12:13:57.985Z,34.33
2022-08-26T12:16:37.168Z,33.78
2022-08-26T12:19:33.920Z,33.63
2022-08-26T12:22:15.164Z,33.07
2022-08-26T12:24:49.707Z,32.91
2022-08-26T12:27:23.210Z,32.61
2022-08-26T12:30:04.785Z,31.28
2022-08-26T12:32:52.830Z,31.69
2022-08-26T12:35:38.032Z,31.82
2022-08-26T12:38:11.041Z,31.31
2022-08-26T12:40:50.243Z,30.51
2022-08-26T12:43:41.730Z,30.65
2022-08-26T12:46:15.529Z,30.23
2022-08-26T12:48:49.476Z,29.74
2022-08-26T12:51:26.967Z,29.83
2022-08-26T12:53:56.241Z,29.93
2022-08-26T12:56:24.858Z,29.81
2022-08-26T12:59:24.770Z,29.44
2022-08-26T13:02:01.255Z,28.87
2022-08-26T13:04:47.756Z,28.29
2022-08-26T13:07:26.046Z,28.14
2022-08-26T13:09:57.243Z,28.35
2022-08-26T13:12:35.595Z,29.01
2022-08-26T13:15:08.301Z,29.22
2022-08-26T13:17:37.985Z,29.40
2022-08-26T13:20:10.221Z,29.67
2022-08-26T13:22:48.327Z,29.95
2022-08-26T13:35:57.466Z,27.83
2022-08-26T13:38:33.137Z,27.86
2022-08-26T13:41:03.744Z,27.98
2022-08-26T13:43:35.839Z,27.92
2022-08-26T13:46:17.486Z,28.14
2022-08-26T13:49:13.979Z,27.93
2022-08-26T13:51:46.250Z,28.01
2022-08-26T13:54:15.201Z,27.88
2022-08-26T13:56:49.311Z,28.11
2022-08-26T13:59:32.333Z,27.94
2022-08-26T14:02:03.011Z,28.00
2022-08-26T14:04:36.949Z,28.41
2022-08-26T14:07:05.968Z,28.50
2022-08-26T14:09:38.286Z,28.85
2022-08-26T14:12:07.791Z,28.54
2022-08-26T14:14:36.737Z,28.48
2022-08-26T14:17:32.115Z,28.73
2022-08-26T14:20:04.214Z,28.92
2022-08-26T14:22:57.409Z,29.51
2022-08-26T14:25:31.702Z,29.83
2022-08-26T14:28:01.812Z,29.99
2022-08-26T14:30:30.803Z,30.26
2022-08-26T14:33:01.971Z,30.15
2022-08-26T14:35:31.555Z,30.02
2022-08-26T14:38:06.589Z,30.24
2022-08-26T14:40:40.702Z,30.39
2022-08-26T14:43:09.855Z,31.00
2022-08-26T14:45:45.919Z,31.27
2022-08-26T14:48:23.992Z,31.56
2022-08-26T14:50:59.714Z,31.81
2022-08-26T14:53:47.140Z,31.92
2022-08-26T14:56:21.150Z,31.86
2022-08-26T14:58:55.193Z,31.61
2022-08-26T15:01:30.763Z,31.76
2022-08-26T15:04:01.388Z,32.22
2022-08-26T15:06:35.298Z,32.62
2022-08-26T15:09:05.806Z,32.71
2022-08-26T15:11:37.232Z,32.90
2022-08-26T15:14:18.876Z,33.04
2022-08-26T15:16:57.995Z,33.18
2022-08-26T15:19:30.421Z,33.49
2022-08-26T15:21:59.606Z,33.75
2022-08-26T15:24:32.132Z,33.95
2022-08-26T15:27:00.722Z,34.03
2022-08-26T15:29:29.477Z,34.30
2022-08-26T15:31:58.024Z,34.48
2022-08-26T15:34:29.909Z,34.47
2022-08-26T15:37:02.487Z,34.90
2022-08-26T15:39:37.976Z,35.08
2022-08-26T15:42:09.792Z,34.76
2022-08-26T15:44:43.393Z,35.12
2022-08-26T15:47:19.292Z,34.92
2022-08-26T15:49:48.956Z,35.05
2022-08-26T15:52:23.785Z,35.45
2022-08-26T15:55:15.144Z,35.40
2022-08-26T15:57:46.965Z,35.66
2022-08-26T16:00:23.539Z,35.82
2022-08-26T16:02:59.799Z,36.20
2022-08-26T16:05:28.880Z,36.11
2022-08-26T16:08:02.189Z,36.68
2022-08-26T16:10:45.427Z,36.83
2022-08-26T16:13:27.110Z,36.86
2022-08-26T16:16:11.212Z,37.13
2022-08-26T16:18:40.860Z,37.23
2022-08-26T16:21:14.973Z,36.90
2022-08-26T16:23:50.995Z,37.10
2022-08-26T16:26:28.422Z,37.41
2022-08-26T16:29:02.125Z,37.77
2022-08-26T16:31:39.490Z,37.92
2022-08-26T16:34:18.536Z,38.40
2022-08-26T16:36:47.580Z,38.35
2022-08-26T16:39:27.918Z,38.65
2022-08-26T16:42:03.848Z,39.17
2022-08-26T16:44:44.724Z,39.77
2022-08-26T16:47:23.493Z,40.21
2022-08-26T16:49:53.054Z,40.65
2022-08-26T16:52:22.298Z,41.24
2022-08-26T16:54:56.657Z,41.76
2022-08-26T16:57:31.296Z,42.41
2022-08-26T17:00:10.018Z,43.15
2022-08-26T17:02:41.558Z,43.86
2022-08-26T17:05:11.496Z,44.35
2022-08-26T17:07:44.064Z,45.23
2022-08-26T17:10:22.335Z,46.11
2022-08-26T17:13:00.433Z,47.22
2022-08-26T17:15:37.679Z,48.00
2022-08-26T17:18:18.785Z,48.87
2022-08-26T17:20:56.277Z,49.65
2022-08-26T17:23:41.453Z,50.38
2022-08-26T17:26:37.061Z,51.05
2022-08-26T17:29:35.073Z,51.80
2022-08-26T17:32:11.335Z,52.84
2022-08-26T17:34:51.557Z,53.60
2022-08-26T17:37:38.553Z,54.48
2022-08-26T17:40:25.470Z,55.30
2022-08-26T17:43:13.604Z,55.96
2022-08-26T17:46:12.510Z,56.85
2022-08-26T17:49:03.216Z,57.65
2022-08-26T17:51:35.931Z,58.30
2022-08-26T17:54:10.686Z,58.99
2022-08-26T17:56:55.247Z,59.59
2022-08-26T17:59:30.684Z,60.18
2022-08-26T18:02:05.447Z,60.73
2022-08-26T18:04:39.497Z,61.33
2022-08-26T18:07:13.607Z,63.21
2022-08-26T18:09:45.554Z,63.77
2022-08-26T18:12:20.128Z,62.75
2022-08-26T18:14:51.476Z,61.67
2022-08-26T18:17:27.228Z,60.24
2022-08-26T18:20:01.647Z,59.65
2022-08-26T18:22:33.698Z,60.54
2022-08-26T18:25:03.074Z,61.45
2022-08-26T18:27:31.903Z,63.35
2022-08-26T18:30:18.310Z,64.00
2022-08-26T18:32:48.828Z,63.24
2022-08-26T18:35:28.477Z,62.14
2022-08-26T18:38:11.229Z,61.54
2022-08-26T18:40:50.153Z,61.02
2022-08-26T18:43:34.764Z,59.68
2022-08-26T18:46:20.891Z,59.71
2022-08-26T18:49:13.945Z,60.78
2022-08-26T18:51:46.814Z,63.12
2022-08-26T18:56:57.317Z,63.29
2022-08-26T18:59:30.471Z,62.57
2022-08-26T19:02:29.593Z,61.96
2022-08-26T19:05:05.524Z,61.86
2022-08-26T19:07:44.361Z,61.52
2022-08-26T19:10:24.392Z,61.41
2022-08-26T19:13:02.432Z,61.11
2022-08-26T19:15:53.941Z,60.90
2022-08-26T19:18:39.317Z,59.86
2022-08-26T19:21:11.333Z,60.13
2022-08-26T19:23:43.450Z,61.35
2022-08-26T19:26:40.002Z,63.68
2022-08-26T19:29:36.934Z,64.58
2022-08-26T19:32:26.548Z,63.95
2022-08-26T19:34:58.261Z,63.38
2022-08-26T19:37:54.399Z,63.03
2022-08-26T19:40:48.341Z,62.63
2022-08-26T19:43:19.416Z,62.33
2022-08-26T19:45:51.521Z,61.96
2022-08-26T19:48:26.433Z,61.86
2022-08-26T19:51:17.802Z,61.82
2022-08-26T19:54:00.417Z,61.75
2022-08-26T19:57:00.776Z,61.69
2022-08-26T19:59:52.629Z,61.53
2022-08-26T20:02:25.062Z,61.47
2022-08-26T20:05:06.051Z,61.34
2022-08-26T20:07:35.762Z,61.33
2022-08-26T20:10:10.190Z,61.26
2022-08-26T20:12:42.164Z,61.37
2022-08-26T20:15:15.364Z,61.67
2022-08-26T20:17:50.069Z,61.35
2022-08-26T20:20:49.264Z,61.33
2022-08-26T20:23:36.192Z,61.50
2022-08-26T20:26:11.357Z,61.27
2022-08-26T20:29:03.954Z,61.16
2022-08-26T20:31:40.675Z,61.21
2022-08-26T20:34:21.212Z,61.13
2022-08-26T20:36:53.378Z,61.17
2022-08-26T20:39:40.672Z,61.21
2022-08-26T20:42:20.573Z,61.25
2022-08-26T20:44:54.768Z,61.18
2022-08-26T20:47:33.634Z,61.06
2022-08-26T20:50:40.710Z,61.18
2022-08-26T20:53:18.467Z,61.11
2022-08-26T20:56:02.077Z,61.24
2022-08-26T20:58:39.493Z,61.38
2022-08-26T21:01:26.578Z,61.57
2022-08-26T21:04:22.945Z,61.58
2022-08-26T21:07:11.090Z,61.75
2022-08-26T21:09:49.022Z,61.79
2022-08-26T21:12:40.001Z,61.64
2022-08-26T21:15:09.606Z,61.61
2022-08-26T21:17:43.206Z,61.65
2022-08-26T21:20:24.224Z,61.95
2022-08-26T21:22:59.961Z,62.10
2022-08-26T21:45:22.565Z,62.22
2022-08-26T21:48:03.560Z,62.30
2022-08-26T21:51:04.322Z,62.27
2022-08-26T21:53:41.197Z,62.28
2022-08-26T21:56:17.974Z,62.15
2022-08-26T21:58:52.487Z,62.15
2022-08-26T22:01:28.389Z,62.22
2022-08-26T22:04:10.631Z,62.34
2022-08-26T22:06:43.798Z,62.36
2022-08-26T22:09:25.642Z,62.39
2022-08-26T22:11:57.806Z,62.29
2022-08-26T22:14:39.853Z,61.97
2022-08-26T22:17:12.324Z,61.75
2022-08-26T22:19:48.339Z,61.08
2022-08-26T22:22:19.482Z,60.87
2022-08-26T22:24:48.178Z,60.72
2022-08-26T22:27:43.026Z,60.01
2022-08-26T22:30:28.956Z,59.90
2022-08-26T22:33:09.671Z,58.10
2022-08-26T22:35:57.870Z,59.05
2022-08-26T22:38:32.595Z,60.58
2022-08-26T22:41:04.314Z,62.80
2022-08-26T22:43:38.774Z,63.13
2022-08-26T22:46:15.300Z,62.75
2022-08-26T22:48:44.849Z,62.65
2022-08-26T22:51:14.261Z,62.16
2022-08-26T22:53:44.009Z,61.90
2022-08-26T22:56:23.296Z,61.71
2022-08-26T22:58:58.437Z,61.65
2022-08-26T23:02:02.402Z,61.65
2022-08-26T23:04:34.619Z,61.66
2022-08-26T23:07:23.269Z,61.22
2022-08-26T23:09:54.827Z,61.17
2022-08-26T23:12:29.141Z,60.81
2022-08-26T23:15:12.163Z,60.28
2022-08-26T23:17:58.699Z,59.78
2022-08-26T23:20:41.608Z,58.73
2022-08-26T23:23:15.287Z,59.12
2022-08-26T23:25:58.824Z,60.11
2022-08-26T23:28:38.363Z,63.29
2022-08-26T23:31:23.274Z,64.25
2022-08-26T23:34:29.954Z,63.28
2022-08-26T23:37:06.781Z,62.39
2022-08-26T23:39:51.385Z,61.78
2022-08-26T23:42:37.864Z,61.42
2022-08-26T23:45:21.590Z,61.14
2022-08-26T23:48:00.694Z,61.05
2022-08-26T23:51:20.702Z,60.93
2022-08-26T23:54:00.059Z,60.57
2022-08-26T23:56:41.932Z,60.28
2022-08-26T23:59:13.336Z,60.21
